Time;durP1;ratioP1;P1;durP2;ratioP2;P2;SDS_P1;SDS_P2;PMS_P1;PMS_P2;Temp;Humidity;BMP_temperature;BMP_pressure;BME280_temperature;BME280_humidity;BME280_pressure;Samples;Min_cycle;Max_cycle;Signal;HPM_P1;HPM_P2
2021/05/05 04:16:02;;;;;;;4.15;1.67;;;;;;;6.54;98.23;97703.63;5676879;23;20106;-71
2021/05/05 04:18:28;;;;;;;3.88;1.33;;;;;;;6.43;98.65;97688.41;4954346;28;20035;-71
2021/05/05 04:21:00;;;;;;;1.83;1.50;;;;;;;6.64;98.97;97699.16;4954395;28;20506;-71
2021/05/05 04:23:26;;;;;;;3.15;1.45;;;;;;;6.49;97.88;97699.44;4954376;28;20023;-71
2021/05/05 04:25:51;;;;;;;4.63;1.63;;;;;;;6.67;97.88;97707.66;4952944;28;20019;-71
2021/05/05 04:28:16;;;;;;;3.90;1.50;;;;;;;6.64;97.56;97719.75;4952818;28;20382;-71
2021/05/05 04:30:42;;;;;;;2.13;1.50;;;;;;;6.61;97.85;97724.94;4991203;23;20039;-69
2021/05/05 04:33:07;;;;;;;5.78;1.70;;;;;;;6.34;97.44;97722.03;4953940;28;20376;-69
2021/05/05 04:35:33;;;;;;;3.95;1.40;;;;;;;6.37;97.51;97734.81;4953853;28;20020;-69
2021/05/05 04:37:58;;;;;;;3.97;1.52;;;;;;;6.59;97.81;97737.84;4953973;28;20042;-69
2021/05/05 04:40:23;;;;;;;1.63;1.50;;;;;;;6.57;97.38;97743.88;4954164;28;20106;-69
2021/05/05 04:42:48;;;;;;;2.13;1.40;;;;;;;6.43;97.54;97742.44;4954026;28;20027;-69
2021/05/05 04:45:14;;;;;;;4.22;1.80;;;;;;;6.49;98.26;97733.75;4954074;28;20031;-71
2021/05/05 04:47:40;;;;;;;2.65;1.52;;;;;;;6.77;97.75;97741.81;4953674;28;20061;-71
2021/05/05 04:50:07;;;;;;;1.98;1.10;;;;;;;6.55;96.97;97755.94;4954014;28;20050;-71
2021/05/05 04:52:33;;;;;;;4.63;1.75;;;;;;;6.36;96.91;97745.13;4953987;28;20035;-71
2021/05/05 04:54:58;;;;;;;3.45;1.45;;;;;;;6.57;96.29;97752.44;4954069;28;20468;-71
2021/05/05 04:57:24;;;;;;;5.72;1.23;;;;;;;6.61;95.68;97755.81;4953792;28;20035;-71
2021/05/05 04:59:49;;;;;;;1.50;1.30;;;;;;;6.34;95.11;97762.34;4953958;28;20385;-71
2021/05/05 05:02:14;;;;;;;3.63;1.00;;;;;;;6.61;96.87;97766.13;4953676;29;20071;-72
2021/05/05 05:04:40;;;;;;;4.93;1.40;;;;;;;6.51;96.70;97772.31;4954051;28;20023;-72
2021/05/05 05:07:06;;;;;;;2.50;1.45;;;;;;;6.49;97.02;97766.34;4953595;28;20524;-73
2021/05/05 05:09:32;;;;;;;2.47;1.20;;;;;;;6.40;96.96;97767.38;4953932;28;20101;-72
2021/05/05 05:11:58;;;;;;;3.33;1.40;;;;;;;6.36;95.50;97771.69;4953727;28;20027;-72
2021/05/05 05:14:23;;;;;;;3.85;1.63;;;;;;;6.47;94.80;97783.53;4953839;28;20106;-73
2021/05/05 05:16:48;;;;;;;1.80;1.55;;;;;;;6.48;95.94;97785.22;4953465;28;20529;-72
2021/05/05 05:19:14;;;;;;;6.18;1.83;;;;;;;6.57;97.06;97775.59;4953702;28;20031;-73
2021/05/05 05:21:39;;;;;;;2.30;1.40;;;;;;;6.56;94.78;97779.06;4953509;28;20031;-72
2021/05/05 05:24:05;;;;;;;1.70;1.40;;;;;;;6.40;94.13;97778.50;4953639;28;20086;-72
2021/05/05 05:26:31;;;;;;;2.63;1.48;;;;;;;6.47;95.02;97783.53;4953490;28;20031;-70
2021/05/05 05:28:56;;;;;;;3.45;1.20;;;;;;;6.35;94.81;97793.16;4953559;28;20034;-70
2021/05/05 05:31:21;;;;;;;1.92;1.13;;;;;;;6.48;92.38;97800.66;4953389;28;20031;-72
2021/05/05 05:33:46;;;;;;;6.55;1.23;;;;;;;6.41;93.82;97795.63;4953787;28;20035;-72
2021/05/05 05:36:12;;;;;;;3.35;1.35;;;;;;;6.46;91.69;97792.13;4953595;28;20027;-72
2021/05/05 05:38:37;;;;;;;1.50;1.20;;;;;;;6.74;93.83;97793.31;4953546;28;20116;-72
2021/05/05 05:41:02;;;;;;;3.45;1.33;;;;;;;6.59;91.08;97783.31;4953584;28;20499;-72
2021/05/05 05:43:28;;;;;;;4.07;1.40;;;;;;;6.62;91.49;97786.69;4953491;28;20491;-73
2021/05/05 05:45:53;;;;;;;6.13;2.03;;;;;;;6.59;92.24;97786.75;4953384;28;20308;-72
2021/05/05 05:48:18;;;;;;;2.28;1.13;;;;;;;6.73;91.53;97794.22;4955635;28;20027;-73
2021/05/05 05:50:44;;;;;;;2.83;1.40;;;;;;;6.87;90.98;97799.94;4956927;28;20062;-73
2021/05/05 05:53:09;;;;;;;2.90;1.10;;;;;;;6.97;91.47;97799.78;4957036;28;20023;-73
2021/05/05 05:55:35;;;;;;;4.95;1.50;;;;;;;7.21;90.61;97804.44;4956995;28;20400;-72
2021/05/05 05:58:03;;;;;;;1.40;1.30;;;;;;;7.21;91.68;97818.16;4956591;28;20469;-73
2021/05/05 06:00:29;;;;;;;5.97;1.67;;;;;;;7.30;89.80;97813.69;4956690;28;20078;-72
2021/05/05 06:02:54;;;;;;;1.77;1.20;;;;;;;7.17;89.85;97813.09;4943627;28;20043;-72
2021/05/05 06:05:19;;;;;;;3.08;1.00;;;;;;;7.16;89.46;97825.16;4935540;29;20393;-72
2021/05/05 06:07:45;;;;;;;18.40;9.68;;;;;;;7.16;90.33;97826.88;4936447;29;20039;-72
2021/05/05 06:10:14;;;;;;;8.32;2.58;;;;;;;6.94;89.75;97829.84;4937272;29;20452;-72
2021/05/05 06:12:40;;;;;;;10.23;6.13;;;;;;;6.88;90.40;97822.25;4937090;29;20030;-72
2021/05/05 06:15:06;;;;;;;19.02;11.27;;;;;;;7.10;91.17;97824.41;4937130;29;20032;-72
2021/05/05 06:17:32;;;;;;;10.75;5.80;;;;;;;7.21;91.25;97837.94;4936450;29;20385;-72
2021/05/05 06:19:57;;;;;;;2.50;2.00;;;;;;;7.37;88.98;97836.72;4936807;29;20031;-72
2021/05/05 06:22:23;;;;;;;4.28;1.90;;;;;;;7.38;91.11;97843.56;4936412;29;20034;-72
2021/05/05 06:24:48;;;;;;;3.97;2.47;;;;;;;7.44;91.21;97840.88;4936987;29;20107;-72
2021/05/05 06:27:13;;;;;;;5.68;1.70;;;;;;;7.65;89.46;97851.63;4934579;29;20083;-73
2021/05/05 06:29:39;;;;;;;4.45;2.00;;;;;;;7.85;88.54;97844.31;4943911;29;20039;-73
2021/05/05 06:32:05;;;;;;;6.55;1.58;;;;;;;7.89;86.93;97847.69;4936884;28;20035;-73
2021/05/05 06:34:32;;;;;;;7.03;1.55;;;;;;;8.06;86.26;97849.84;4936976;29;20020;-70
2021/05/05 06:36:58;;;;;;;7.20;2.22;;;;;;;8.34;85.61;97850.91;4936720;29;20044;-70
2021/05/05 06:39:23;;;;;;;3.20;1.30;;;;;;;8.79;80.62;97845.50;4937261;29;20459;-71
2021/05/05 06:41:49;;;;;;;8.80;1.55;;;;;;;9.08;79.20;97846.47;4934373;29;20110;-70
2021/05/05 06:44:14;;;;;;;2.15;1.10;;;;;;;8.79;80.70;97855.84;4936766;29;20062;-70
2021/05/05 06:46:42;;;;;;;1.40;1.30;;;;;;;8.71;81.69;97868.13;4936631;29;20518;-70
2021/05/05 06:49:09;;;;;;;1.40;1.02;;;;;;;8.64;81.79;97866.56;4936878;29;20468;-70
2021/05/05 06:51:35;;;;;;;2.65;1.20;;;;;;;8.45;81.30;97877.34;4936349;29;20373;-69
2021/05/05 06:54:00;;;;;;;2.42;1.30;;;;;;;8.19;82.82;97879.66;4935879;29;20125;-71
2021/05/05 06:56:26;;;;;;;4.10;1.20;;;;;;;8.05;81.24;97881.72;4936543;29;20023;-72
2021/05/05 06:58:52;;;;;;;4.75;1.48;;;;;;;7.85;81.54;97885.56;4936393;29;20032;-69
2021/05/05 07:01:18;;;;;;;2.45;1.42;;;;;;;7.83;85.07;97882.19;4936745;29;20035;-70
2021/05/05 07:03:44;;;;;;;2.97;1.40;;;;;;;8.14;82.43;97882.34;4935891;29;20036;-70
2021/05/05 07:06:09;;;;;;;5.43;1.60;;;;;;;8.44;80.81;97896.28;4935779;29;20027;-69
2021/05/05 07:08:34;;;;;;;5.70;1.40;;;;;;;8.37;79.93;97884.44;4917306;29;20055;-72
2021/05/05 07:11:00;;;;;;;3.13;1.45;;;;;;;8.57;79.15;97896.03;4898480;29;20021;-70
2021/05/05 07:13:25;;;;;;;4.18;1.50;;;;;;;8.54;77.29;97888.34;4898516;29;20398;-69
2021/05/05 07:15:50;;;;;;;8.95;1.60;;;;;;;8.92;79.07;97883.06;4897372;29;20084;-70
2021/05/05 07:18:17;;;;;;;5.85;1.75;;;;;;;9.49;75.84;97890.16;4896323;29;20032;-71
2021/05/05 07:20:44;;;;;;;4.93;1.40;;;;;;;9.21;73.87;97884.03;4896188;29;20071;-72
2021/05/05 07:23:09;;;;;;;5.03;1.65;;;;;;;9.26;74.19;97887.34;4908664;29;20097;-72
2021/05/05 07:25:34;;;;;;;4.10;2.00;;;;;;;9.22;75.72;97890.88;4917034;29;20032;-72
2021/05/05 07:28:00;;;;;;;5.38;1.40;;;;;;;10.19;70.73;97881.19;4915932;29;20028;-71
2021/05/05 07:30:25;;;;;;;6.60;1.40;;;;;;;10.58;68.59;97878.28;4908797;29;20024;-70
2021/05/05 07:32:51;;;;;;;6.85;1.67;;;;;;;10.45;69.32;97889.03;4896896;29;20105;-70
2021/05/05 07:35:19;;;;;;;8.13;1.77;;;;;;;10.26;69.68;97893.09;4898002;29;20027;-71
2021/05/05 07:38:12;;;;;;;13.43;2.55;;;;;;;9.74;71.77;97904.97;4897802;29;20040;-72
2021/05/05 07:46:42;;;;;;;6.72;2.63;;;;;;;11.76;60.20;97904.41;4897916;29;20036;-73
2021/05/05 07:48:52;;;;;;;3.80;1.85;;;;;;;10.01;66.99;97917.09;4896368;29;20072;-72
2021/05/05 07:51:18;;;;;;;2.40;1.38;;;;;;;9.17;69.16;97921.19;4896686;29;20061;-70
2021/05/05 07:53:44;;;;;;;6.18;2.25;;;;;;;9.92;62.60;97925.13;4897717;29;20085;-70
2021/05/05 07:56:10;;;;;;;7.75;1.67;;;;;;;12.26;55.87;97921.59;4897537;29;20451;-71
2021/05/05 07:58:35;;;;;;;8.00;1.70;;;;;;;13.45;50.06;97914.16;4896203;29;20033;-70
2021/05/05 08:01:01;;;;;;;9.00;1.80;;;;;;;13.98;47.99;97917.88;4897216;29;20024;-70
2021/05/05 08:03:27;;;;;;;4.68;1.45;;;;;;;13.28;49.76;97927.03;4896609;29;20482;-71
2021/05/05 08:05:52;;;;;;;5.65;1.38;;;;;;;13.99;46.46;97940.41;4897604;29;20063;-71
2021/05/05 08:08:17;;;;;;;4.07;1.60;;;;;;;14.18;44.27;97946.47;4897514;29;20028;-72
2021/05/05 08:10:43;;;;;;;6.10;1.50;;;;;;;15.27;43.33;97933.41;4896865;29;20052;-72
2021/05/05 08:13:08;;;;;;;4.30;2.00;;;;;;;13.96;46.63;97938.78;4896548;29;20732;-72
2021/05/05 08:15:35;;;;;;;5.13;1.70;;;;;;;13.84;43.33;97931.53;4896746;29;20549;-69
2021/05/05 08:18:03;;;;;;;4.93;1.63;;;;;;;11.83;45.66;97946.56;4896966;29;20028;-74
2021/05/05 08:20:28;;;;;;;11.65;3.60;;;;;;;9.69;53.92;97963.75;4897510;29;20040;-75
2021/05/05 08:22:54;;;;;;;7.72;2.92;;;;;;;10.22;54.78;97948.41;4895964;29;20021;-69
2021/05/05 08:25:19;;;;;;;5.82;1.77;;;;;;;13.86;44.12;97935.72;4896602;29;20504;-71
2021/05/05 08:27:45;;;;;;;4.43;1.42;;;;;;;15.55;39.21;97918.03;4896514;29;20024;-69
2021/05/05 08:30:10;;;;;;;4.15;1.35;;;;;;;15.05;38.87;97918.84;4896900;29;20446;-72
2021/05/05 08:32:36;;;;;;;10.30;1.80;;;;;;;12.80;43.50;97946.31;4897005;29;20039;-72
2021/05/05 08:35:01;;;;;;;4.82;1.50;;;;;;;11.48;46.53;97956.44;4897266;29;20020;-71
2021/05/05 08:37:27;;;;;;;5.13;1.92;;;;;;;10.30;51.11;97956.84;4896083;29;20128;-69
2021/05/05 08:39:52;;;;;;;5.82;2.78;;;;;;;9.82;54.24;97977.19;4896622;29;20235;-69
2021/05/05 08:42:17;;;;;;;11.88;3.42;;;;;;;10.13;54.74;97959.03;4895992;29;20398;-72
2021/05/05 08:44:47;;;;;;;9.43;2.00;;;;;;;12.48;49.18;97955.41;4896388;29;20032;-69
2021/05/05 08:47:15;;;;;;;7.93;2.85;;;;;;;11.44;50.05;97954.00;4896675;29;20040;-69
2021/05/05 08:49:40;;;;;;;11.98;2.45;;;;;;;10.60;52.96;97959.38;4893730;29;20036;-71
2021/05/05 08:52:06;;;;;;;6.00;2.03;;;;;;;9.83;55.43;97966.78;4899960;29;20499;-72
2021/05/05 08:54:31;;;;;;;7.10;2.00;;;;;;;9.66;55.77;97969.00;4915661;29;20478;-69
2021/05/05 08:56:56;;;;;;;3.70;1.85;;;;;;;12.03;47.27;97959.66;4915353;29;20071;-72
2021/05/05 08:59:22;;;;;;;7.00;2.13;;;;;;;12.86;43.11;97956.47;4915171;29;20099;-69
2021/05/05 09:01:48;;;;;;;5.15;1.35;;;;;;;14.77;39.03;97942.84;4913842;29;20091;-70
2021/05/05 09:04:14;;;;;;;1.85;1.17;;;;;;;16.21;38.35;97960.78;4909979;29;20025;-73
2021/05/05 09:06:51;;;;;;;3.78;1.42;;;;;;;16.67;36.78;97944.22;4896631;29;20401;-74
2021/05/05 09:09:36;;;;;;;4.97;1.50;;;;;;;15.39;36.91;97958.91;4896857;29;20060;-73
2021/05/05 09:12:10;;;;;;;4.78;1.58;;;;;;;15.86;35.81;97945.22;4895227;29;20021;-70
2021/05/05 09:14:36;;;;;;;4.63;1.35;;;;;;;16.46;34.82;97937.59;4896343;29;20053;-70
2021/05/05 09:17:01;;;;;;;3.00;1.40;;;;;;;15.94;35.42;97950.84;4896387;29;20025;-73
2021/05/05 09:19:26;;;;;;;4.25;1.40;;;;;;;15.49;37.04;97946.25;4894197;29;20025;-70
2021/05/05 09:21:52;;;;;;;3.38;1.20;;;;;;;13.29;41.46;97946.91;4918493;28;20046;-70
2021/05/05 09:24:29;;;;;;;1.67;1.02;;;;;;;13.63;39.84;97957.59;4890763;28;20040;-69
2021/05/05 09:26:57;;;;;;;5.22;1.23;;;;;;;15.01;36.67;97948.63;4935473;29;20122;-72
2021/05/05 09:29:42;;;;;;;4.72;1.38;;;;;;;14.48;40.19;97964.22;4938230;29;20426;-72
2021/05/05 09:32:09;;;;;;;2.40;1.10;;;;;;;15.67;35.97;97942.72;4941443;29;20122;-72
2021/05/05 09:34:35;;;;;;;4.03;1.13;;;;;;;16.04;34.33;97945.97;4949883;28;20136;-70
2021/05/05 09:37:10;;;;;;;3.80;1.48;;;;;;;16.49;33.11;97952.25;4936882;29;20111;-70
2021/05/05 09:39:38;;;;;;;3.45;1.08;;;;;;;16.33;33.72;97957.47;4937985;29;20023;-72
2021/05/05 09:42:26;;;;;;;4.43;0.93;;;;;;;15.77;34.25;97948.31;4937075;29;20060;-70
2021/05/05 09:44:52;;;;;;;3.35;1.30;;;;;;;17.73;30.88;97938.97;4946682;29;20696;-70
2021/05/05 09:47:18;;;;;;;7.72;1.52;;;;;;;16.43;30.76;97938.59;4943242;28;20031;-73
2021/05/05 09:49:44;;;;;;;5.97;1.63;;;;;;;15.12;35.12;97941.09;4937378;29;20039;-70
2021/05/05 09:52:15;;;;;;;6.50;1.40;;;;;;;15.08;34.27;97942.16;4936758;29;20036;-73
2021/05/05 09:54:52;;;;;;;5.13;1.40;;;;;;;16.13;32.17;97945.50;4937937;29;20434;-73
2021/05/05 09:57:30;;;;;;;5.85;1.35;;;;;;;17.31;30.86;97936.25;4937589;29;20043;-70
2021/05/05 09:59:56;;;;;;;3.30;1.10;;;;;;;16.68;30.32;97943.31;4939372;29;20043;-70
2021/05/05 10:02:22;;;;;;;5.65;1.23;;;;;;;16.90;30.04;97944.75;4939860;29;20055;-70
2021/05/05 10:05:09;;;;;;;5.65;1.38;;;;;;;14.67;33.82;97959.84;4944800;29;20027;-70
2021/05/05 10:07:53;;;;;;;2.80;1.10;;;;;;;13.94;35.08;97961.44;4951510;29;20031;-70
2021/05/05 10:10:19;;;;;;;2.78;1.38;;;;;;;12.97;35.95;97964.69;4936859;29;20042;-70
2021/05/05 10:12:45;;;;;;;3.90;1.10;;;;;;;13.83;34.43;97953.28;4936729;29;20064;-70
2021/05/05 10:15:12;;;;;;;2.85;1.60;;;;;;;13.20;37.23;97965.47;4937404;29;20051;-70
2021/05/05 10:17:38;;;;;;;8.82;1.83;;;;;;;11.98;37.68;97987.53;4937286;29;20028;-70
2021/05/05 10:20:04;;;;;;;8.00;1.35;;;;;;;11.47;39.94;97985.88;4940052;28;20094;-70
2021/05/05 10:22:30;;;;;;;6.45;1.67;;;;;;;11.44;40.79;97985.97;4954212;29;20046;-70
2021/05/05 10:24:57;;;;;;;7.30;1.42;;;;;;;11.57;42.66;97987.25;4956008;28;20027;-70
2021/05/05 10:27:23;;;;;;;5.20;1.30;;;;;;;12.28;40.74;97982.13;4956122;28;20030;-70
2021/05/05 10:29:50;;;;;;;3.85;1.58;;;;;;;11.85;42.68;97991.50;4956005;28;20027;-70
2021/05/05 10:32:20;;;;;;;4.63;1.65;;;;;;;11.90;42.08;97989.59;4962862;23;20138;-71
2021/05/05 10:34:50;;;;;;;4.13;1.27;;;;;;;11.46;41.36;97997.16;4945674;29;20035;-71
2021/05/05 10:37:15;;;;;;;8.70;1.30;;;;;;;12.75;38.47;97984.66;4947054;29;20035;-71
2021/05/05 10:39:45;;;;;;;3.05;1.33;;;;;;;12.75;38.00;97990.69;4946266;29;20037;-72
2021/05/05 10:42:21;;;;;;;8.60;1.80;;;;;;;13.06;38.10;97981.69;4945763;29;20495;-71
2021/05/05 10:44:53;;;;;;;2.92;1.40;;;;;;;13.87;34.94;97973.03;4943857;29;20035;-72
2021/05/05 10:47:21;;;;;;;4.32;1.25;;;;;;;14.44;34.88;97978.28;4944876;29;20046;-72
2021/05/05 10:52:54;;;;;;;5.32;1.80;;;;;;;12.05;38.77;97998.56;4942780;28;20105;-72
2021/05/05 10:55:38;;;;;;;4.97;1.20;;;;;;;11.55;41.63;98025.34;4943205;28;20106;-72
2021/05/05 10:58:05;;;;;;;1.80;1.30;;;;;;;10.92;40.93;98044.72;4944337;29;20031;-71
2021/05/05 11:00:49;;;;;;;3.33;0.82;;;;;;;8.56;57.65;98162.81;4900219;28;20182;-71
2021/05/05 11:03:37;;;;;;;3.80;0.60;;;;;;;7.26;66.20;98176.22;4947159;29;20019;-71
2021/05/05 11:06:03;;;;;;;1.40;0.85;;;;;;;6.14;73.35;98199.84;4946943;29;20617;-71
2021/05/05 11:08:28;;;;;;;0.70;0.70;;;;;;;6.00;77.54;98209.44;4945484;28;20039;-71
2021/05/05 11:10:56;;;;;;;2.55;0.95;;;;;;;5.71;81.44;98227.66;4943033;29;20117;-71
2021/05/05 11:13:22;;;;;;;1.00;0.88;;;;;;;5.76;81.48;98226.75;4946599;29;20460;-71
2021/05/05 11:15:47;;;;;;;1.02;0.90;;;;;;;5.41;81.11;98230.41;4946608;29;20496;-71
2021/05/05 11:18:28;;;;;;;3.17;1.20;;;;;;;5.18;82.91;98245.09;4946082;28;20051;-71
2021/05/05 11:20:55;;;;;;;3.05;1.23;;;;;;;5.03;83.28;98242.56;4940205;28;20032;-71
2021/05/05 11:23:44;;;;;;;1.83;1.55;;;;;;;5.38;84.13;98234.72;4941630;29;20054;-71
2021/05/05 11:26:26;;;;;;;4.22;1.25;;;;;;;5.49;82.23;98220.06;4937900;28;21339;-70
2021/05/05 11:28:59;;;;;;;1.40;1.17;;;;;;;5.47;81.43;98214.09;4945315;28;20063;-71
2021/05/05 11:31:47;;;;;;;4.28;1.60;;;;;;;5.91;80.34;98221.50;4940552;28;20062;-70
2021/05/05 11:34:19;;;;;;;3.83;1.42;;;;;;;6.15;78.43;98217.00;4942795;29;20030;-70
2021/05/05 11:36:46;;;;;;;4.15;1.42;;;;;;;6.48;77.97;98212.38;4945319;29;20118;-71
2021/05/05 11:39:40;;;;;;;4.18;1.70;;;;;;;7.16;74.14;98206.41;4942582;29;20138;-71
2021/05/05 11:42:11;;;;;;;1.95;1.17;;;;;;;7.90;71.72;98193.25;4943778;29;20031;-71
2021/05/05 11:44:52;;;;;;;3.17;1.27;;;;;;;9.13;69.68;98181.41;4942979;28;20085;-71
2021/05/05 11:47:23;;;;;;;1.65;1.08;;;;;;;9.59;67.43;98179.53;4943231;29;20146;-71
2021/05/05 11:49:52;;;;;;;0.95;0.85;;;;;;;10.82;59.56;98167.69;4945517;28;20031;-71
2021/05/05 11:52:24;;;;;;;1.67;1.20;;;;;;;9.94;60.92;98171.75;4943003;29;20023;-71
2021/05/05 11:55:01;;;;;;;1.88;0.95;;;;;;;9.52;61.28;98184.88;4944655;29;20031;-72
2021/05/05 11:57:31;;;;;;;4.35;0.90;;;;;;;9.25;63.04;98173.41;4945219;29;20070;-71
2021/05/05 12:00:17;;;;;;;2.00;1.00;;;;;;;8.87;63.21;98184.56;4939823;28;20037;-72
2021/05/05 12:02:47;;;;;;;2.60;1.23;;;;;;;9.81;63.40;98180.72;4944012;29;20054;-72
2021/05/05 12:05:24;;;;;;;3.92;1.15;;;;;;;10.01;59.45;98182.81;4945661;29;20499;-71
2021/05/05 12:08:19;;;;;;;5.25;0.90;;;;;;;10.31;61.33;98186.38;4943241;29;20039;-71
2021/05/05 12:10:48;;;;;;;1.17;0.90;;;;;;;10.45;59.11;98184.28;4942291;28;20031;-71
2021/05/05 12:13:39;;;;;;;3.30;0.95;;;;;;;10.22;59.05;98191.78;4938197;28;20027;-71
2021/05/05 12:16:13;;;;;;;3.85;1.10;;;;;;;10.12;58.43;98200.66;4944904;28;20035;-71
2021/05/05 12:18:44;;;;;;;8.88;1.27;;;;;;;9.86;57.79;98188.34;4939466;28;20042;-71
2021/05/05 12:21:11;;;;;;;2.78;1.02;;;;;;;10.26;56.60;98193.44;4943642;29;20037;-71
2021/05/05 12:23:41;;;;;;;7.35;1.10;;;;;;;10.93;54.66;98191.56;4939307;29;20038;-71
2021/05/05 12:26:13;;;;;;;2.80;0.95;;;;;;;11.10;52.06;98182.44;4943415;29;20027;-71
2021/05/05 12:28:38;;;;;;;0.80;0.80;;;;;;;11.50;53.29;98177.72;4940371;29;20063;-72
2021/05/05 12:31:04;;;;;;;2.97;1.05;;;;;;;11.25;52.85;98180.22;4941506;28;20110;-71
2021/05/05 12:33:29;;;;;;;3.53;1.27;;;;;;;11.38;52.37;98178.13;4939681;29;20034;-71
2021/05/05 12:35:55;;;;;;;3.47;1.30;;;;;;;10.87;52.73;98176.19;4940997;28;20058;-71
2021/05/05 12:38:22;;;;;;;4.45;1.30;;;;;;;10.85;54.05;98172.78;4939711;28;20787;-71
2021/05/05 12:40:48;;;;;;;2.38;1.33;;;;;;;11.00;53.86;98182.72;4943224;29;20027;-71
2021/05/05 12:43:25;;;;;;;2.97;1.00;;;;;;;11.32;54.42;98186.09;4941333;29;20020;-71
2021/05/05 12:45:51;;;;;;;1.15;0.90;;;;;;;11.01;53.13;98189.59;4944089;28;20145;-71
2021/05/05 12:48:23;;;;;;;3.00;1.00;;;;;;;11.03;53.63;98187.81;4942043;29;20042;-72
2021/05/05 12:50:48;;;;;;;9.85;2.00;;;;;;;10.71;52.96;98195.66;4945460;29;20031;-69
2021/05/05 12:53:14;;;;;;;1.85;0.98;;;;;;;10.69;53.24;98187.94;4941091;29;20085;-69
2021/05/05 12:55:41;;;;;;;3.42;1.10;;;;;;;11.03;53.76;98192.16;4938400;29;20413;-69
2021/05/05 12:58:16;;;;;;;0.98;0.70;;;;;;;11.18;51.86;98206.41;4938145;29;20038;-69
2021/05/05 13:00:47;;;;;;;2.80;1.10;;;;;;;11.29;52.25;98193.97;4944743;29;20041;-69
2021/05/05 13:03:15;;;;;;;2.80;1.10;;;;;;;11.49;49.01;98195.94;4938310;29;20472;-69
2021/05/05 13:06:03;;;;;;;0.70;0.70;;;;;;;11.30;45.14;98211.22;4942722;29;20030;-69
2021/05/05 13:08:35;;;;;;;42.55;23.35;;;;;;;11.43;47.65;98202.19;4943194;29;20031;-69
2021/05/05 13:11:06;;;;;;;1.15;0.90;;;;;;;11.68;47.75;98201.41;4944562;29;20034;-68
2021/05/05 13:14:08;;;;;;;2.72;0.95;;;;;;;11.69;46.11;98201.34;4944812;29;20090;-68
2021/05/05 13:16:58;;;;;;;2.45;1.00;;;;;;;12.16;44.92;98208.53;4942263;28;20083;-68
2021/05/05 13:20:10;;;;;;;3.33;0.68;;;;;;;11.27;45.42;98221.69;4939473;28;20114;-68
2021/05/05 13:31:41;;;;;;;1.10;0.90;;;;;;;11.46;48.66;98230.63;4941934;28;21109;-71
2021/05/05 13:34:07;;;;;;;1.42;0.90;;;;;;;11.53;46.47;98216.56;4944696;29;20077;-71
2021/05/05 13:36:59;;;;;;;1.80;1.00;;;;;;;11.69;47.97;98218.66;4944414;29;20400;-68
2021/05/05 13:39:28;;;;;;;1.25;0.90;;;;;;;11.73;48.31;98218.53;4939993;28;20550;-68
2021/05/05 13:42:01;;;;;;;1.08;0.73;;;;;;;11.82;47.62;98230.41;4941378;29;20037;-68
2021/05/05 13:44:32;;;;;;;4.15;1.17;;;;;;;12.26;46.84;98225.50;4944026;29;20043;-68
2021/05/05 13:52:05;;;;;;;2.55;0.93;;;;;;;12.20;47.52;98221.38;4942299;29;20106;-72
2021/05/05 13:54:32;;;;;;;2.58;1.00;;;;;;;11.94;46.80;98223.94;4943680;29;20123;-69
2021/05/05 13:57:01;;;;;;;2.30;1.08;;;;;;;12.32;46.33;98220.09;4943994;28;20039;-69
2021/05/05 13:59:27;;;;;;;4.35;2.35;;;;;;;12.46;45.14;98223.06;4942996;28;20043;-71
2021/05/05 14:01:52;;;;;;;26.30;1.80;;;;;;;11.83;44.62;98232.09;4944351;29;20090;-71
2021/05/05 14:04:18;;;;;;;4.68;2.25;;;;;;;11.49;44.50;98247.81;4941512;29;20118;-71
2021/05/05 14:06:46;;;;;;;2.03;0.90;;;;;;;10.97;45.58;98250.19;4942869;28;20374;-71
2021/05/05 14:09:11;;;;;;;2.28;0.82;;;;;;;10.82;47.42;98266.16;4941512;28;20057;-71
2021/05/05 14:11:37;;;;;;;1.88;1.10;;;;;;;10.73;47.79;98307.88;4945794;29;20027;-71
2021/05/05 14:14:03;;;;;;;2.95;0.90;;;;;;;9.44;53.90;98326.41;4943808;28;20034;-71
2021/05/05 14:16:29;;;;;;;3.47;0.90;;;;;;;9.19;57.92;98345.88;4946741;29;20066;-70
2021/05/05 14:18:54;;;;;;;5.53;1.02;;;;;;;8.67;62.13;98357.16;4943191;28;20117;-70
2021/05/05 14:21:19;;;;;;;2.80;0.90;;;;;;;7.97;67.20;98365.09;4945997;29;20035;-70
2021/05/05 14:23:45;;;;;;;2.75;1.40;;;;;;;7.44;70.74;98338.28;4945596;29;20078;-71
2021/05/05 14:26:11;;;;;;;1.25;1.00;;;;;;;7.12;72.98;98335.28;4944188;29;20551;-70
2021/05/05 14:28:40;;;;;;;2.85;1.10;;;;;;;7.10;72.97;98342.13;4945124;28;20038;-71
2021/05/05 14:31:10;;;;;;;7.22;1.50;;;;;;;7.19;75.57;98334.31;4944115;29;20495;-71
2021/05/05 14:33:36;;;;;;;1.95;1.23;;;;;;;7.15;76.91;98335.22;4944645;29;20444;-71
2021/05/05 14:36:02;;;;;;;5.80;2.90;;;;;;;7.17;76.80;98354.94;4944814;29;20061;-71
2021/05/05 14:38:31;;;;;;;12.25;5.40;;;;;;;7.25;76.71;98338.53;4944263;29;20036;-71
2021/05/05 14:40:57;;;;;;;7.38;3.50;;;;;;;8.42;75.97;98321.44;4946440;28;20034;-71
2021/05/05 14:43:28;;;;;;;6.30;1.63;;;;;;;9.49;69.03;98319.41;4946793;29;20074;-71
2021/05/05 14:46:11;;;;;;;5.95;2.90;;;;;;;10.24;70.35;98312.53;4944459;29;20050;-71
2021/05/05 14:48:36;;;;;;;1.63;1.52;;;;;;;10.23;66.93;98307.38;4946040;29;20062;-71
2021/05/05 14:51:02;;;;;;;5.93;2.45;;;;;;;9.69;65.32;98305.19;4943973;28;20114;-71
2021/05/05 14:53:29;;;;;;;3.45;1.70;;;;;;;9.32;66.04;98300.78;4943574;29;20023;-71
2021/05/05 14:55:56;;;;;;;2.80;1.60;;;;;;;9.19;71.22;98301.94;4945216;29;20039;-71
2021/05/05 14:58:29;;;;;;;4.32;1.92;;;;;;;9.20;69.58;98303.63;4945502;29;20039;-70
2021/05/05 15:00:54;;;;;;;2.90;1.27;;;;;;;9.08;71.21;98290.94;4945755;29;20457;-73
2021/05/05 15:03:21;;;;;;;4.47;1.30;;;;;;;9.11;71.94;98298.66;4941028;28;20023;-71
2021/05/05 15:05:48;;;;;;;17.52;9.93;;;;;;;9.01;69.78;98301.41;4944863;29;20110;-71
2021/05/05 15:08:18;;;;;;;5.25;1.35;;;;;;;8.81;70.05;98318.19;4943953;28;21297;-71
2021/05/05 15:29:44;;;;;;;4.80;1.85;;;;;;;10.73;60.96;98285.44;4943022;29;20179;-72
2021/05/05 15:37:42;;;;;;;2.53;1.75;;;;;;;10.25;62.20;98280.63;4941562;28;20066;-74
2021/05/05 15:40:19;;;;;;;3.42;1.80;;;;;;;10.26;60.27;98287.47;4946429;29;20043;-73
2021/05/05 15:42:44;;;;;;;1.23;1.08;;;;;;;10.31;54.44;98289.97;4944302;29;20039;-73
2021/05/05 15:45:12;;;;;;;3.83;1.13;;;;;;;10.21;50.84;98278.09;4946328;29;20045;-74
2021/05/05 15:47:38;;;;;;;3.83;1.20;;;;;;;10.65;52.56;98299.47;4945982;29;20042;-74
2021/05/05 15:50:08;;;;;;;2.20;1.17;;;;;;;10.64;49.22;98283.06;4946224;29;20031;-74
2021/05/05 15:52:37;;;;;;;;;;;;;;;11.43;49.51;98274.81;4946415;29;20023;-73
2021/05/05 15:55:05;;;;;;;1.50;0.82;;;;;;;11.95;48.33;98272.41;4940358;29;19926;-73
2021/05/05 15:57:30;;;;;;;2.35;1.13;;;;;;;11.57;46.80;98284.78;4939815;29;20429;-72
2021/05/05 16:00:01;;;;;;;1.25;1.10;;;;;;;11.51;46.33;98282.38;4944774;28;20033;-71
2021/05/05 16:02:55;;;;;;;2.47;0.98;;;;;;;11.20;48.88;98288.44;4939981;28;20107;-73
2021/05/05 16:16:00;;;;;;;4.03;1.92;;;;;;;10.16;50.89;98295.50;4939924;28;20454;-73
2021/05/05 16:18:28;;;;;;;4.93;1.38;;;;;;;10.25;52.18;98311.69;4940976;28;20058;-73
2021/05/05 16:26:19;;;;;;;8.98;4.53;;;;;;;9.67;55.28;98349.22;4944744;29;20078;-71
2021/05/05 16:29:01;;;;;;;1.63;1.38;;;;;;;8.66;60.71;98381.28;4940147;28;20062;-72
2021/05/05 16:47:38;;;;;;;2.92;1.52;;;;;;;10.27;63.02;98371.19;4945350;29;20042;-70
2021/05/05 16:50:53;;;;;;;2.95;1.45;;;;;;;10.26;59.70;98366.91;4939315;29;20035;-70
2021/05/05 17:11:49;;;;;;;1.10;0.80;;;;;;;11.59;52.66;98378.97;4942167;28;20031;-72
2021/05/05 17:14:14;;;;;;;11.65;5.97;;;;;;;11.01;49.28;98376.25;4945364;28;20106;-70
2021/05/05 17:16:40;;;;;;;3.28;1.20;;;;;;;10.19;51.78;98383.41;4945058;28;20401;-70
2021/05/05 17:19:19;;;;;;;1.20;1.10;;;;;;;10.13;52.76;98378.38;4945097;28;20501;-70
2021/05/05 17:21:47;;;;;;;1.33;1.23;;;;;;;9.99;53.15;98386.44;4944932;29;20031;-70
2021/05/05 17:24:26;;;;;;;2.40;1.40;;;;;;;9.82;51.85;98389.41;4945155;28;20106;-70
2021/05/05 17:26:59;;;;;;;1.42;1.02;;;;;;;9.74;52.41;98391.31;4944854;29;20480;-70
2021/05/05 17:29:35;;;;;;;3.15;1.08;;;;;;;9.91;54.05;98389.22;4939191;29;20046;-70
2021/05/05 17:43:15;;;;;;;1.67;1.20;;;;;;;8.75;55.28;98375.94;4941447;28;20138;-72
2021/05/05 17:45:58;;;;;;;1.30;1.07;;;;;;;8.74;56.47;98382.00;4942665;28;20027;-73
2021/05/05 18:20:06;;;;;;;3.28;1.30;;;;;;;7.93;61.70;98445.16;4942070;28;20035;-72
2021/05/05 18:30:23;;;;;;;3.97;1.83;;;;;;;7.74;63.83;98449.66;4958231;28;20464;-72